Latest Weather Observations for Bridgetown

IDW60801

Issued at 9:33 pm WST Tuesday 28 March 2017 (issued every 30 minutes, with the page automatically refreshed every 10 minutes)

About weather observations | Map of weather stations | Latest weather observations for WA | Other Formats
Station Details ID: 009617 Name: BRIDGETOWN Lat: -33.95 Lon: 116.13 Height: 178.66 m
Data from the previous 72 hours. | See also: Recent months at Bridgetown
Date/Time
WST
Temp
°C
App
Temp
°C
Dew
Point
°C
Rel
Hum
%
Delta-T
°C
Wind Press
QNH
hPa
Press
MSL
hPa
Rain since
9am
mm
Dir  Spd
km/h
Gust
km/h
Spd
kts
Gust
kts
28/09:30pm 13.6 12.4 10.2 80 1.8 S 7 15 4 8 1022.4 1021.9 0.2
28/09:00pm 14.0 12.1 10.4 79 1.9 S 11 19 6 10 1022.3 1021.8 0.2
28/08:30pm 14.4 13.0 11.0 80 1.8 S 9 15 5 8 1021.9 1021.4 0.2
28/08:00pm 14.4 13.2 11.6 83 1.5 S 9 17 5 9 1021.5 1020.9 0.2
28/07:30pm 14.4 12.8 11.7 84 1.5 S 11 22 6 12 1021.0 1020.4 0.2
28/07:00pm 14.5 12.4 12.4 87 1.1 S 15 22 8 12 1020.3 1019.8 0.2
28/06:30pm 15.0 13.5 13.0 88 1.1 S 13 20 7 11 1019.9 1019.4 0.2
28/06:00pm 15.9 15.7 13.0 83 1.6 SW 6 19 3 10 1019.3 1018.8 0.0
28/05:30pm 17.6 16.5 11.9 69 3.2 S 9 17 5 9 1018.8 1018.3 0.0
28/05:00pm 18.1 16.4 11.2 64 3.8 SSW 11 17 6 9 1018.7 1018.2 0.0
28/04:30pm 18.5 16.5 10.3 59 4.4 SW 11 20 6 11 1018.5 1018.0 0.0
28/04:00pm 19.5 16.6 9.7 53 5.2 SSW 15 24 8 13 1018.3 1017.8 0.0
28/03:30pm 19.4 17.3 9.9 54 5.1 SSW 11 20 6 11 1018.1 1017.6 0.0
28/03:00pm 20.4 17.7 10.5 53 5.4 SW 15 24 8 13 1017.9 1017.4 0.0
28/02:30pm 21.2 19.7 10.7 51 5.8 WSW 9 20 5 11 1017.7 1017.2 0.0
28/02:00pm 21.0 19.0 10.2 50 5.9 WSW 11 20 6 11 1017.6 1017.1 0.0
28/01:30pm 19.8 18.4 11.0 57 4.8 SSW 9 20 5 11 1017.9 1017.4 0.0
28/01:00pm 20.3 19.1 10.4 53 5.4 SW 7 19 4 10 1018.0 1017.5 0.0
28/12:30pm 20.9 19.4 10.7 52 5.6 SW 9 20 5 11 1018.1 1017.6 0.0
28/12:00pm 19.1 17.1 10.1 56 4.8 SW 11 22 6 12 1018.7 1018.2 0.0
28/11:30am 18.6 17.1 10.4 59 4.4 SSW 9 19 5 10 1018.9 1018.4 0.0
28/11:00am 18.4 16.1 10.5 60 4.3 SW 13 20 7 11 1019.1 1018.6 0.0
28/10:30am 17.9 16.4 11.9 68 3.3 SW 11 22 6 12 1019.1 1018.6 0.0
28/10:00am 17.3 16.8 12.6 74 2.6 SW 7 19 4 10 1019.0 1018.5 0.0
28/09:30am 16.5 16.2 13.4 82 1.8 WSW 7 15 4 8 1019.0 1018.5 0.0
28/09:00am 16.3 16.2 13.8 85 1.4 WNW 7 11 4 6 1018.9 1018.4 0.0
28/08:30am 16.0 16.4 13.7 86 1.3 W 4 7 2 4 1018.8 1018.3 0.0
28/08:00am 15.1 14.9 13.1 88 1.1 NW 6 9 3 5 1018.5 1018.0 0.0
28/07:30am 14.8 14.6 13.0 89 1.0 N 6 11 3 6 1018.5 1018.0 0.0
28/07:00am 14.2 14.6 12.6 90 0.9 NNW 2 6 1 3 1018.4 1017.9 0.0
28/06:30am 14.1 14.2 12.7 91 0.8 NNW 4 6 2 3 1018.4 1017.9 0.0
28/06:00am 14.3 14.4 12.7 90 0.9 NNW 4 11 2 6 1018.6 1018.1 0.0
28/05:30am 14.4 14.0 12.4 88 1.1 NW 6 9 3 5 1018.4 1017.9 0.0
28/05:00am 14.6 14.0 12.3 86 1.3 NNW 7 11 4 6 1018.3 1017.8 0.0
28/04:30am 14.7 14.2 12.2 85 1.4 NW 6 9 3 5 1018.5 1018.0 0.0
28/04:00am 14.6 14.2 12.3 86 1.3 NW 6 11 3 6 1018.6 1018.1 0.0
28/03:30am 14.9 14.4 11.9 82 1.6 NW 6 9 3 5 1018.6 1018.1 0.0
28/03:00am 14.6 15.1 11.7 83 1.6 CALM 0 0 0 0 1018.4 1017.9 0.0
28/02:30am 14.7 14.8 11.5 81 1.7 NNW 2 4 1 2 1018.6 1018.1 0.0
28/02:00am 14.8 14.5 11.4 80 1.8 NNW 4 7 2 4 1018.8 1018.3 0.0
28/01:30am 15.1 15.1 11.3 78 2.1 NNW 2 4 1 2 1018.9 1018.4 0.0
28/01:00am 15.1 15.5 11.1 77 2.1 CALM 0 2 0 1 1019.2 1018.7 0.0
28/12:30am 15.2 14.8 11.2 77 2.2 NNW 4 6 2 3 1019.4 1018.9 0.0
28/12:00am 15.2 15.5 11.0 76 2.2 CALM 0 0 0 0 1019.3 1018.8 0.0
 
Date/Time
WST
Temp
°C
App
Temp
°C
Dew
Point
°C
Rel
Hum
%
Delta-T
°C
Wind Press
QNH
hPa
Press
MSL
hPa
Rain since
9am
mm
Dir  Spd
km/h
Gust
km/h
Spd
kts
Gust
kts
27/11:30pm 15.1 15.3 10.5 74 2.4 CALM 0 2 0 1 1019.6 1019.1 0.0
27/11:00pm 15.1 14.9 10.3 73 2.5 WSW 2 7 1 4 1019.7 1019.2 0.0
27/10:30pm 15.1 14.4 10.1 72 2.6 WSW 4 7 2 4 1019.8 1019.3 0.0
27/10:00pm 15.1 14.7 9.9 71 2.7 WSW 2 7 1 4 1020.0 1019.5 0.0
27/09:30pm 15.2 14.4 9.8 70 2.8 SSW 4 9 2 5 1020.2 1019.7 0.0
27/09:00pm 15.3 14.5 9.7 69 2.9 SW 4 11 2 6 1020.3 1019.8 0.0
27/08:30pm 15.3 14.4 9.4 68 3.1 WSW 4 7 2 4 1020.2 1019.7 0.0
27/08:00pm 15.8 14.5 9.9 68 3.1 SSW 7 13 4 7 1020.2 1019.7 0.0
27/07:30pm 16.1 15.7 9.8 66 3.3 WSW 2 9 1 5 1020.1 1019.6 0.0
27/07:00pm 16.2 15.4 9.6 65 3.5 WSW 4 9 2 5 1020.1 1019.6 0.0
27/06:30pm 16.5 15.3 9.7 64 3.6 SW 6 13 3 7 1020.2 1019.7 0.0
27/06:00pm 17.1 15.9 9.5 61 4.0 WSW 6 11 3 6 1020.0 1019.5 0.0
27/05:30pm 17.6 16.9 10.0 61 4.1 SW 4 7 2 4 1020.0 1019.5 0.0
27/05:00pm 18.2 16.9 9.8 58 4.5 SW 7 15 4 8 1019.9 1019.4 0.0
27/04:30pm 18.4 17.0 9.5 56 4.7 WSW 7 15 4 8 1019.9 1019.4 0.0
27/04:00pm 18.6 17.2 9.7 56 4.7 WSW 7 17 4 9 1020.2 1019.7 0.0
27/03:30pm 19.0 17.3 9.8 55 4.9 WNW 9 17 5 9 1020.2 1019.7 0.0
27/03:00pm 19.1 17.9 9.6 54 5.1 W 6 11 3 6 1020.3 1019.8 0.0
27/02:30pm 19.2 16.9 9.1 52 5.3 W 11 20 6 11 1020.5 1020.0 0.0
27/02:00pm 20.6 18.9 9.8 50 5.8 W 9 19 5 10 1020.5 1020.0 0.0
27/01:30pm 20.0 18.5 9.3 50 5.7 W 7 17 4 9 1020.9 1020.3 0.0
27/01:00pm 19.1 17.2 9.0 52 5.3 WSW 9 15 5 8 1021.3 1020.7 0.0
27/12:30pm 18.4 16.4 8.7 53 5.1 WSW 9 22 5 12 1021.7 1021.2 0.0
27/12:00pm 18.6 16.1 8.0 50 5.5 WNW 11 28 6 15 1022.2 1021.7 0.0
27/11:30am 18.2 16.4 7.9 51 5.3 WSW 7 17 4 9 1022.6 1022.1 0.0
27/11:00am 17.8 15.8 8.6 55 4.8 W 9 20 5 11 1022.8 1022.3 0.0
27/10:30am 17.1 15.2 9.0 59 4.2 WNW 9 15 5 8 1023.2 1022.7 0.0
27/10:00am 16.4 15.0 8.9 61 3.9 WNW 6 11 3 6 1023.1 1022.6 0.0
27/09:30am 14.9 14.1 9.5 70 2.8 N 4 6 2 3 1023.0 1022.5 0.0
27/09:00am 12.4 12.5 10.0 85 1.2 CALM 0 0 0 0 1023.0 1022.5 0.2
27/08:30am 10.3 10.1 9.1 92 0.6 CALM 0 0 0 0 1023.1 1022.6 0.2
27/08:00am 9.0 8.6 8.1 94 0.4 CALM 0 0 0 0 1023.0 1022.5 0.2
27/07:30am 8.5 8.0 7.7 95 0.4 CALM 0 0 0 0 1022.8 1022.3 0.2
27/07:00am 7.5 6.8 6.9 96 0.3 CALM 0 0 0 0 1022.3 1021.8 0.2
27/06:30am 6.6 5.7 5.9 95 0.3 CALM 0 0 0 0 1021.9 1021.4 0.2
27/06:00am 6.9 6.1 6.3 96 0.3 CALM 0 0 0 0 1021.6 1021.0 0.2
27/05:30am 6.8 5.9 6.2 96 0.3 CALM 0 0 0 0 1021.3 1020.7 0.2
27/05:00am 6.2 5.2 5.6 96 0.3 CALM 0 0 0 0 1021.1 1020.5 0.2
27/04:30am 5.8 4.7 5.1 95 0.3 CALM 0 0 0 0 1020.9 1020.3 0.2
27/04:00am 5.6 4.1 4.9 95 0.3 NNW 2 4 1 2 1020.9 1020.3 0.2
27/03:30am 5.1 3.9 4.4 95 0.3 CALM 0 2 0 1 1020.4 1019.9 0.2
27/03:00am 5.5 4.3 4.8 95 0.3 CALM 0 0 0 0 1020.1 1019.6 0.2
27/02:30am 5.8 4.7 4.9 94 0.4 CALM 0 0 0 0 1020.1 1019.6 0.2
27/02:00am 6.3 5.3 5.4 94 0.4 CALM 0 2 0 1 1020.1 1019.6 0.2
27/01:30am 6.7 5.7 5.8 94 0.4 CALM 0 0 0 0 1020.1 1019.6 0.2
27/01:00am 6.9 5.9 5.8 93 0.5 CALM 0 4 0 2 1020.4 1019.9 0.2
27/12:30am 7.1 6.2 5.9 92 0.5 CALM 0 0 0 0 1020.5 1020.0 0.2
27/12:00am 7.5 6.6 6.1 91 0.6 CALM 0 0 0 0 1020.4 1019.9 0.2
 
Date/Time
WST
Temp
°C
App
Temp
°C
Dew
Point
°C
Rel
Hum
%
Delta-T
°C
Wind Press
QNH
hPa
Press
MSL
hPa
Rain since
9am
mm
Dir  Spd
km/h
Gust
km/h
Spd
kts
Gust
kts
26/11:30pm 7.7 6.8 6.2 90 0.7 CALM 0 0 0 0 1020.4 1019.9 0.2
26/11:00pm 7.8 6.9 6.1 89 0.8 CALM 0 0 0 0 1020.4 1019.9 0.2
26/10:30pm 8.3 7.5 6.4 88 0.9 CALM 0 0 0 0 1020.3 1019.8 0.2
26/10:00pm 8.5 7.7 6.5 87 0.9 CALM 0 0 0 0 1020.1 1019.6 0.2
26/09:30pm 8.4 7.5 5.9 84 1.1 CALM 0 0 0 0 1019.7 1019.2 0.2
26/09:00pm 9.1 8.2 6.2 82 1.3 CALM 0 0 0 0 1019.5 1019.0 0.2
26/08:30pm 11.1 10.2 6.0 71 2.4 CALM 0 0 0 0 1019.3 1018.8 0.2
26/08:00pm 12.0 11.2 6.3 68 2.7 CALM 0 2 0 1 1019.0 1018.5 0.2
26/07:30pm 12.8 12.0 6.6 66 3.0 CALM 0 4 0 2 1018.7 1018.2 0.2
26/07:00pm 13.2 12.1 6.8 65 3.1 SW 2 6 1 3 1018.3 1017.8 0.2
26/06:30pm 14.4 12.4 7.0 61 3.6 SSW 7 15 4 8 1017.7 1017.2 0.2
26/06:00pm 15.2 12.9 7.5 60 3.8 SSW 9 24 5 13 1017.1 1016.6 0.2
26/05:30pm 15.6 13.2 6.9 56 4.3 SSW 9 20 5 11 1016.6 1016.0 0.2
26/05:00pm 16.4 12.9 7.1 54 4.6 SSW 15 28 8 15 1016.2 1015.6 0.2
26/04:30pm 17.6 14.3 6.5 48 5.5 WSW 13 26 7 14 1015.6 1015.0 0.2
26/04:00pm 16.9 13.6 6.4 50 5.2 SW 13 30 7 16 1015.3 1014.7 0.2
26/03:30pm 17.7 14.5 6.9 49 5.4 SW 13 28 7 15 1014.6 1014.1 0.2
26/03:00pm 16.8 13.1 8.0 56 4.5 SSW 17 39 9 21 1014.8 1014.2 0.2
26/02:30pm 17.9 14.5 7.6 51 5.3 WSW 15 30 8 16 1014.4 1013.9 0.2
26/02:00pm 17.6 13.0 5.5 45 5.9 W 19 44 10 24 1014.3 1013.8 0.2
26/01:30pm 18.9 14.7 5.7 42 6.5 W 17 37 9 20 1013.7 1013.2 0.2
26/01:00pm 18.6 14.1 4.4 39 6.8 WSW 17 37 9 20 1013.6 1013.1 0.2
26/12:30pm 17.3 15.0 9.0 58 4.3 WSW 11 33 6 18 1013.3 1012.8 0.2
26/12:00pm 18.2 15.6 9.5 57 4.6 WSW 13 28 7 15 1012.8 1012.3 0.2
26/11:30am 16.9 14.0 9.8 63 3.8 WSW 15 35 8 19 1013.0 1012.5 0.2
26/11:00am 15.1 11.5 8.3 64 3.5 WSW 17 32 9 17 1013.0 1012.5 0.0
26/10:30am 18.1 14.9 8.4 53 5.0 WNW 15 28 8 15 1012.0 1011.5 0.0
26/10:00am 16.9 13.5 7.8 55 4.6 W 15 30 8 16 1011.9 1011.4 0.0
26/09:30am 16.6 13.4 8.6 59 4.1 W 15 33 8 18 1011.6 1011.0 0.0
26/09:00am 16.0 13.6 8.7 62 3.8 WNW 11 24 6 13 1011.2 1010.6 3.2
26/08:30am 15.2 12.9 9.1 67 3.2 W 11 20 6 11 1010.8 1010.2 3.2
26/08:00am 15.0 12.9 9.8 71 2.7 NW 11 37 6 20 1010.5 1009.9 3.2
26/07:30am 14.1 12.4 9.7 75 2.3 WNW 9 24 5 13 1010.0 1009.4 3.2
26/07:00am 13.3 11.9 9.7 79 1.9 NW 7 15 4 8 1009.6 1009.0 3.2
26/06:30am 12.0 11.3 9.9 87 1.1 WNW 4 7 2 4 1008.8 1008.3 3.2
26/06:00am 12.7 11.8 10.6 87 1.1 WNW 6 11 3 6 1008.3 1007.8 3.2
26/05:30am 13.0 12.1 10.5 85 1.3 NW 6 15 3 8 1007.8 1007.3 3.2
26/05:00am 13.1 11.9 10.3 83 1.5 WNW 7 17 4 9 1007.7 1007.2 3.2
26/04:30am 13.4 11.9 10.4 82 1.6 WNW 9 24 5 13 1007.7 1007.2 3.2
26/04:00am 13.7 12.1 11.4 86 1.2 WSW 11 28 6 15 1007.3 1006.8 3.2
26/03:30am 15.1 14.6 13.8 92 0.7 WNW 9 26 5 14 1006.6 1006.0 3.0
26/03:00am 15.5 15.4 14.0 91 0.9 NW 7 22 4 12 1006.1 1005.5 1.6
26/02:30am 16.1 15.4 13.2 83 1.6 NNW 9 17 5 9 1005.7 1005.1 0.0
26/02:00am 16.2 15.0 12.7 80 2.0 NNW 11 19 6 10 1006.3 1005.7 0.0
26/01:30am 16.6 15.5 12.0 74 2.5 NW 9 17 5 9 1006.6 1006.0 0.0
26/01:00am 16.2 15.1 11.8 75 2.4 NNW 9 17 5 9 1006.6 1006.0 0.0
26/12:30am 15.5 14.8 11.9 79 2.0 NNW 7 11 4 6 1007.0 1006.5 0.0
26/12:00am 15.6 14.6 12.2 80 1.9 NNW 9 15 5 8 1007.2 1006.7 0.0
 
Date/Time
WST
Temp
°C
App
Temp
°C
Dew
Point
°C
Rel
Hum
%
Delta-T
°C
Wind Press
QNH
hPa
Press
MSL
hPa
Rain since
9am
mm
Dir  Spd
km/h
Gust
km/h
Spd
kts
Gust
kts
25/11:30pm 15.9 15.0 12.5 80 1.9 NNW 9 15 5 8 1007.4 1006.9 0.0
25/11:00pm 16.3 15.9 12.5 78 2.1 NNW 6 13 3 7 1007.7 1007.2 0.0
25/10:30pm 16.8 16.1 12.1 74 2.6 NW 7 13 4 7 1008.4 1007.9 0.0
25/10:00pm 17.3 17.0 13.4 78 2.2 NW 7 20 4 11 1008.6 1008.1 0.0

Other Formats:

Comma delimited format used in spreadsheet applications
http://www.bom.gov.au/fwo/IDW60801/IDW60801.95632.axf

JavaScript Object Notation format (JSON) in row-major order
http://www.bom.gov.au/fwo/IDW60801/IDW60801.95632.json